sensor_id;sensor_type;location;lat;lon;timestamp;P1;durP1;ratioP1;P2;durP2;ratioP2
71878;SDS011;59755;43.834;4.364;2022-08-04T00:01:02;9.88;;;7.80;;
71878;SDS011;59755;43.834;4.364;2022-08-04T00:03:35;9.05;;;6.93;;
71878;SDS011;59755;43.834;4.364;2022-08-04T00:11:04;11.05;;;7.35;;
71878;SDS011;59755;43.834;4.364;2022-08-04T00:13:33;8.93;;;6.82;;
71878;SDS011;59755;43.834;4.364;2022-08-04T00:16:05;9.52;;;7.13;;
71878;SDS011;59755;43.834;4.364;2022-08-04T00:18:33;10.68;;;7.22;;
71878;SDS011;59755;43.834;4.364;2022-08-04T00:21:03;10.75;;;8.80;;
71878;SDS011;59755;43.834;4.364;2022-08-04T00:23:30;11.25;;;7.90;;
71878;SDS011;59755;43.834;4.364;2022-08-04T00:25:58;10.70;;;8.40;;
71878;SDS011;59755;43.834;4.364;2022-08-04T00:28:26;11.00;;;8.82;;
71878;SDS011;59755;43.834;4.364;2022-08-04T00:30:52;10.63;;;8.48;;
71878;SDS011;59755;43.834;4.364;2022-08-04T00:33:19;10.55;;;9.45;;
71878;SDS011;59755;43.834;4.364;2022-08-04T00:35:46;11.68;;;9.18;;
71878;SDS011;59755;43.834;4.364;2022-08-04T00:38:14;12.13;;;8.90;;
71878;SDS011;59755;43.834;4.364;2022-08-04T00:40:49;10.93;;;9.73;;
71878;SDS011;59755;43.834;4.364;2022-08-04T00:56:36;11.75;;;8.20;;
71878;SDS011;59755;43.834;4.364;2022-08-04T01:02:09;11.65;;;8.68;;
71878;SDS011;59755;43.834;4.364;2022-08-04T01:04:49;10.38;;;8.80;;
71878;SDS011;59755;43.834;4.364;2022-08-04T01:15:22;12.40;;;9.23;;
71878;SDS011;59755;43.834;4.364;2022-08-04T01:18:07;9.45;;;8.48;;
71878;SDS011;59755;43.834;4.364;2022-08-04T01:20:34;10.85;;;8.38;;
71878;SDS011;59755;43.834;4.364;2022-08-04T01:31:23;10.98;;;9.50;;
71878;SDS011;59755;43.834;4.364;2022-08-04T01:33:50;11.38;;;9.80;;
71878;SDS011;59755;43.834;4.364;2022-08-04T01:36:17;11.85;;;9.00;;
71878;SDS011;59755;43.834;4.364;2022-08-04T01:38:44;10.52;;;8.93;;
71878;SDS011;59755;43.834;4.364;2022-08-04T01:41:13;11.50;;;8.52;;
71878;SDS011;59755;43.834;4.364;2022-08-04T01:43:40;12.75;;;9.30;;
71878;SDS011;59755;43.834;4.364;2022-08-04T01:46:06;10.45;;;9.10;;
71878;SDS011;59755;43.834;4.364;2022-08-04T01:48:34;11.07;;;9.50;;
71878;SDS011;59755;43.834;4.364;2022-08-04T01:51:05;13.55;;;9.18;;
71878;SDS011;59755;43.834;4.364;2022-08-04T01:53:33;11.23;;;9.23;;
71878;SDS011;59755;43.834;4.364;2022-08-04T01:56:00;10.65;;;8.70;;
71878;SDS011;59755;43.834;4.364;2022-08-04T01:58:30;10.52;;;8.77;;
71878;SDS011;59755;43.834;4.364;2022-08-04T02:00:58;11.68;;;8.88;;
71878;SDS011;59755;43.834;4.364;2022-08-04T02:03:26;10.13;;;8.20;;
71878;SDS011;59755;43.834;4.364;2022-08-04T02:05:53;11.43;;;8.63;;
71878;SDS011;59755;43.834;4.364;2022-08-04T02:10:58;11.95;;;9.38;;
71878;SDS011;59755;43.834;4.364;2022-08-04T02:13:35;11.52;;;9.40;;
71878;SDS011;59755;43.834;4.364;2022-08-04T02:16:04;10.20;;;9.18;;
71878;SDS011;59755;43.834;4.364;2022-08-04T02:18:40;12.20;;;8.98;;
71878;SDS011;59755;43.834;4.364;2022-08-04T02:21:10;12.45;;;9.45;;
71878;SDS011;59755;43.834;4.364;2022-08-04T02:23:39;13.35;;;9.75;;
71878;SDS011;59755;43.834;4.364;2022-08-04T02:26:24;11.13;;;9.45;;
71878;SDS011;59755;43.834;4.364;2022-08-04T02:33:45;12.32;;;9.65;;
71878;SDS011;59755;43.834;4.364;2022-08-04T02:36:23;11.30;;;9.07;;
71878;SDS011;59755;43.834;4.364;2022-08-04T02:38:53;12.65;;;9.40;;
71878;SDS011;59755;43.834;4.364;2022-08-04T02:41:21;13.20;;;10.02;;
71878;SDS011;59755;43.834;4.364;2022-08-04T02:43:47;11.90;;;9.77;;
71878;SDS011;59755;43.834;4.364;2022-08-04T02:46:17;10.63;;;9.05;;
71878;SDS011;59755;43.834;4.364;2022-08-04T02:48:47;10.70;;;9.57;;
71878;SDS011;59755;43.834;4.364;2022-08-04T02:51:14;13.07;;;8.80;;
71878;SDS011;59755;43.834;4.364;2022-08-04T02:53:41;11.05;;;8.90;;
71878;SDS011;59755;43.834;4.364;2022-08-04T02:56:08;11.48;;;9.63;;
71878;SDS011;59755;43.834;4.364;2022-08-04T02:58:36;11.20;;;10.00;;
71878;SDS011;59755;43.834;4.364;2022-08-04T03:01:03;11.80;;;10.60;;
71878;SDS011;59755;43.834;4.364;2022-08-04T03:06:12;12.23;;;9.82;;
71878;SDS011;59755;43.834;4.364;2022-08-04T03:16:59;13.35;;;9.77;;
71878;SDS011;59755;43.834;4.364;2022-08-04T03:35:15;16.38;;;12.68;;
71878;SDS011;59755;43.834;4.364;2022-08-04T03:43:23;15.75;;;12.15;;
71878;SDS011;59755;43.834;4.364;2022-08-04T03:51:18;14.43;;;11.70;;
71878;SDS011;59755;43.834;4.364;2022-08-04T04:01:50;13.93;;;11.02;;
71878;SDS011;59755;43.834;4.364;2022-08-04T04:04:32;14.02;;;11.02;;
71878;SDS011;59755;43.834;4.364;2022-08-04T04:25:39;13.75;;;10.63;;
71878;SDS011;59755;43.834;4.364;2022-08-04T04:30:49;12.70;;;10.90;;
71878;SDS011;59755;43.834;4.364;2022-08-04T04:36:14;16.65;;;14.43;;
71878;SDS011;59755;43.834;4.364;2022-08-04T04:41:35;13.15;;;10.38;;
71878;SDS011;59755;43.834;4.364;2022-08-04T04:46:52;16.08;;;11.88;;
71878;SDS011;59755;43.834;4.364;2022-08-04T04:51:48;17.85;;;12.35;;
71878;SDS011;59755;43.834;4.364;2022-08-04T04:54:23;15.40;;;11.90;;
71878;SDS011;59755;43.834;4.364;2022-08-04T04:57:23;19.52;;;13.00;;
71878;SDS011;59755;43.834;4.364;2022-08-04T04:59:58;20.52;;;13.60;;
71878;SDS011;59755;43.834;4.364;2022-08-04T05:12:57;19.25;;;13.60;;
71878;SDS011;59755;43.834;4.364;2022-08-04T05:15:30;17.70;;;12.30;;
71878;SDS011;59755;43.834;4.364;2022-08-04T05:17:59;16.48;;;12.23;;
71878;SDS011;59755;43.834;4.364;2022-08-04T05:20:33;15.13;;;11.68;;
71878;SDS011;59755;43.834;4.364;2022-08-04T05:23:08;15.43;;;11.63;;
71878;SDS011;59755;43.834;4.364;2022-08-04T05:30:45;13.73;;;10.52;;
71878;SDS011;59755;43.834;4.364;2022-08-04T05:33:13;13.57;;;10.20;;
71878;SDS011;59755;43.834;4.364;2022-08-04T05:35:41;15.20;;;11.35;;
71878;SDS011;59755;43.834;4.364;2022-08-04T05:38:09;14.43;;;10.82;;
71878;SDS011;59755;43.834;4.364;2022-08-04T05:40:39;14.23;;;10.52;;
71878;SDS011;59755;43.834;4.364;2022-08-04T05:43:07;13.98;;;9.75;;
71878;SDS011;59755;43.834;4.364;2022-08-04T05:45:34;13.02;;;9.20;;
71878;SDS011;59755;43.834;4.364;2022-08-04T05:48:00;11.27;;;8.65;;
71878;SDS011;59755;43.834;4.364;2022-08-04T05:50:27;11.07;;;8.93;;
71878;SDS011;59755;43.834;4.364;2022-08-04T05:52:54;9.88;;;8.05;;
71878;SDS011;59755;43.834;4.364;2022-08-04T05:55:20;12.63;;;8.93;;
71878;SDS011;59755;43.834;4.364;2022-08-04T05:57:46;12.23;;;8.48;;
71878;SDS011;59755;43.834;4.364;2022-08-04T06:00:14;11.32;;;8.18;;
71878;SDS011;59755;43.834;4.364;2022-08-04T06:02:42;9.88;;;7.80;;
71878;SDS011;59755;43.834;4.364;2022-08-04T06:05:09;11.75;;;8.30;;
71878;SDS011;59755;43.834;4.364;2022-08-04T06:07:35;12.35;;;7.80;;
71878;SDS011;59755;43.834;4.364;2022-08-04T06:10:01;10.13;;;8.10;;
71878;SDS011;59755;43.834;4.364;2022-08-04T06:12:53;10.57;;;7.72;;
71878;SDS011;59755;43.834;4.364;2022-08-04T06:15:20;9.23;;;7.28;;
71878;SDS011;59755;43.834;4.364;2022-08-04T06:17:48;10.32;;;7.60;;
71878;SDS011;59755;43.834;4.364;2022-08-04T06:20:15;10.45;;;7.70;;
71878;SDS011;59755;43.834;4.364;2022-08-04T06:22:43;10.15;;;8.25;;
71878;SDS011;59755;43.834;4.364;2022-08-04T06:25:11;10.05;;;8.10;;
71878;SDS011;59755;43.834;4.364;2022-08-04T06:27:38;10.73;;;8.02;;
71878;SDS011;59755;43.834;4.364;2022-08-04T06:30:05;8.90;;;7.30;;
71878;SDS011;59755;43.834;4.364;2022-08-04T06:32:37;10.23;;;8.40;;
71878;SDS011;59755;43.834;4.364;2022-08-04T06:35:12;9.95;;;7.78;;
71878;SDS011;59755;43.834;4.364;2022-08-04T06:37:39;10.10;;;8.50;;
71878;SDS011;59755;43.834;4.364;2022-08-04T06:40:06;11.15;;;8.60;;
71878;SDS011;59755;43.834;4.364;2022-08-04T06:42:33;11.43;;;8.63;;
71878;SDS011;59755;43.834;4.364;2022-08-04T06:44:59;12.00;;;8.52;;
71878;SDS011;59755;43.834;4.364;2022-08-04T06:47:26;12.23;;;8.57;;
71878;SDS011;59755;43.834;4.364;2022-08-04T06:49:54;11.63;;;8.85;;
71878;SDS011;59755;43.834;4.364;2022-08-04T06:52:20;10.45;;;8.18;;
71878;SDS011;59755;43.834;4.364;2022-08-04T06:54:47;9.93;;;8.27;;
71878;SDS011;59755;43.834;4.364;2022-08-04T06:57:14;10.13;;;8.05;;
71878;SDS011;59755;43.834;4.364;2022-08-04T06:59:42;9.73;;;7.88;;
71878;SDS011;59755;43.834;4.364;2022-08-04T07:02:17;11.20;;;8.48;;
71878;SDS011;59755;43.834;4.364;2022-08-04T07:04:45;11.85;;;9.07;;
71878;SDS011;59755;43.834;4.364;2022-08-04T07:07:12;12.32;;;9.25;;
71878;SDS011;59755;43.834;4.364;2022-08-04T07:09:38;11.68;;;8.48;;
71878;SDS011;59755;43.834;4.364;2022-08-04T07:12:05;10.05;;;8.00;;
71878;SDS011;59755;43.834;4.364;2022-08-04T07:14:32;12.60;;;8.40;;
71878;SDS011;59755;43.834;4.364;2022-08-04T07:17:04;10.98;;;8.43;;
71878;SDS011;59755;43.834;4.364;2022-08-04T07:19:31;13.93;;;8.63;;
71878;SDS011;59755;43.834;4.364;2022-08-04T07:22:01;10.23;;;8.27;;
71878;SDS011;59755;43.834;4.364;2022-08-04T07:24:31;16.50;;;9.17;;
71878;SDS011;59755;43.834;4.364;2022-08-04T07:26:58;11.93;;;8.73;;
71878;SDS011;59755;43.834;4.364;2022-08-04T07:29:24;9.95;;;8.10;;
71878;SDS011;59755;43.834;4.364;2022-08-04T07:31:51;10.50;;;8.10;;
71878;SDS011;59755;43.834;4.364;2022-08-04T07:34:18;9.85;;;8.18;;
71878;SDS011;59755;43.834;4.364;2022-08-04T07:36:44;9.65;;;8.45;;
71878;SDS011;59755;43.834;4.364;2022-08-04T07:39:10;10.82;;;8.02;;
71878;SDS011;59755;43.834;4.364;2022-08-04T07:41:36;11.77;;;8.45;;
71878;SDS011;59755;43.834;4.364;2022-08-04T07:44:02;11.85;;;7.88;;
71878;SDS011;59755;43.834;4.364;2022-08-04T07:46:29;9.82;;;7.80;;
71878;SDS011;59755;43.834;4.364;2022-08-04T07:48:55;11.80;;;8.40;;
71878;SDS011;59755;43.834;4.364;2022-08-04T07:51:22;11.35;;;7.80;;
71878;SDS011;59755;43.834;4.364;2022-08-04T07:53:48;15.90;;;7.90;;
71878;SDS011;59755;43.834;4.364;2022-08-04T07:56:15;8.88;;;6.53;;
71878;SDS011;59755;43.834;4.364;2022-08-04T07:58:41;9.43;;;6.90;;
71878;SDS011;59755;43.834;4.364;2022-08-04T08:01:08;11.85;;;7.15;;
71878;SDS011;59755;43.834;4.364;2022-08-04T08:03:34;10.02;;;6.60;;
71878;SDS011;59755;43.834;4.364;2022-08-04T08:06:00;9.48;;;6.68;;
71878;SDS011;59755;43.834;4.364;2022-08-04T08:08:26;11.13;;;6.10;;
71878;SDS011;59755;43.834;4.364;2022-08-04T08:10:53;9.45;;;7.00;;
71878;SDS011;59755;43.834;4.364;2022-08-04T08:13:19;9.25;;;6.90;;
71878;SDS011;59755;43.834;4.364;2022-08-04T08:15:45;11.02;;;6.63;;
71878;SDS011;59755;43.834;4.364;2022-08-04T08:18:12;8.95;;;6.22;;
71878;SDS011;59755;43.834;4.364;2022-08-04T08:20:38;8.52;;;6.30;;
71878;SDS011;59755;43.834;4.364;2022-08-04T08:23:04;9.32;;;6.22;;
71878;SDS011;59755;43.834;4.364;2022-08-04T08:25:32;10.07;;;6.68;;
71878;SDS011;59755;43.834;4.364;2022-08-04T08:27:59;9.38;;;6.18;;
71878;SDS011;59755;43.834;4.364;2022-08-04T08:30:26;9.30;;;6.15;;
71878;SDS011;59755;43.834;4.364;2022-08-04T08:32:52;9.63;;;6.97;;
71878;SDS011;59755;43.834;4.364;2022-08-04T08:35:19;7.95;;;5.80;;
71878;SDS011;59755;43.834;4.364;2022-08-04T08:37:55;9.90;;;6.32;;
71878;SDS011;59755;43.834;4.364;2022-08-04T08:43:08;8.13;;;5.55;;
71878;SDS011;59755;43.834;4.364;2022-08-04T08:48:32;7.95;;;5.47;;
71878;SDS011;59755;43.834;4.364;2022-08-04T09:02:20;7.85;;;5.15;;
71878;SDS011;59755;43.834;4.364;2022-08-04T09:17:28;8.18;;;5.05;;
71878;SDS011;59755;43.834;4.364;2022-08-04T09:27:39;7.55;;;4.82;;
71878;SDS011;59755;43.834;4.364;2022-08-04T09:30:07;7.25;;;4.80;;
71878;SDS011;59755;43.834;4.364;2022-08-04T09:32:36;7.30;;;4.72;;
71878;SDS011;59755;43.834;4.364;2022-08-04T09:40:05;6.78;;;4.95;;
71878;SDS011;59755;43.834;4.364;2022-08-04T09:45:15;8.95;;;4.93;;
71878;SDS011;59755;43.834;4.364;2022-08-04T09:47:56;9.00;;;5.10;;
71878;SDS011;59755;43.834;4.364;2022-08-04T10:00:46;7.93;;;5.40;;
71878;SDS011;59755;43.834;4.364;2022-08-04T10:03:12;7.88;;;5.60;;
71878;SDS011;59755;43.834;4.364;2022-08-04T10:05:55;7.13;;;5.25;;
71878;SDS011;59755;43.834;4.364;2022-08-04T10:08:36;7.63;;;5.38;;
71878;SDS011;59755;43.834;4.364;2022-08-04T10:14:04;8.82;;;5.43;;
71878;SDS011;59755;43.834;4.364;2022-08-04T10:16:42;9.02;;;5.50;;
71878;SDS011;59755;43.834;4.364;2022-08-04T10:19:23;8.75;;;6.00;;
71878;SDS011;59755;43.834;4.364;2022-08-04T10:27:04;8.77;;;5.10;;
71878;SDS011;59755;43.834;4.364;2022-08-04T10:29:47;7.45;;;5.28;;
71878;SDS011;59755;43.834;4.364;2022-08-04T10:32:18;7.38;;;5.35;;
71878;SDS011;59755;43.834;4.364;2022-08-04T10:37:47;9.07;;;5.25;;
71878;SDS011;59755;43.834;4.364;2022-08-04T10:40:09;7.57;;;5.05;;
71878;SDS011;59755;43.834;4.364;2022-08-04T10:42:59;9.60;;;6.35;;
71878;SDS011;59755;43.834;4.364;2022-08-04T10:46:13;9.65;;;6.32;;
71878;SDS011;59755;43.834;4.364;2022-08-04T10:50:47;8.93;;;6.32;;
71878;SDS011;59755;43.834;4.364;2022-08-04T10:53:17;8.40;;;5.70;;
71878;SDS011;59755;43.834;4.364;2022-08-04T10:55:47;9.27;;;6.05;;
71878;SDS011;59755;43.834;4.364;2022-08-04T10:58:15;8.80;;;5.30;;
71878;SDS011;59755;43.834;4.364;2022-08-04T11:00:43;7.30;;;4.72;;
71878;SDS011;59755;43.834;4.364;2022-08-04T11:03:31;7.15;;;4.63;;
71878;SDS011;59755;43.834;4.364;2022-08-04T11:05:59;7.50;;;4.47;;
71878;SDS011;59755;43.834;4.364;2022-08-04T11:08:38;6.80;;;3.83;;
71878;SDS011;59755;43.834;4.364;2022-08-04T11:11:11;7.38;;;3.95;;
71878;SDS011;59755;43.834;4.364;2022-08-04T11:13:43;7.47;;;3.65;;
71878;SDS011;59755;43.834;4.364;2022-08-04T11:16:18;6.38;;;3.65;;
71878;SDS011;59755;43.834;4.364;2022-08-04T11:18:47;7.32;;;3.90;;
71878;SDS011;59755;43.834;4.364;2022-08-04T11:21:18;6.95;;;3.95;;
71878;SDS011;59755;43.834;4.364;2022-08-04T11:23:46;6.45;;;3.60;;
71878;SDS011;59755;43.834;4.364;2022-08-04T11:26:20;7.32;;;3.65;;
71878;SDS011;59755;43.834;4.364;2022-08-04T11:31:25;7.15;;;3.60;;
71878;SDS011;59755;43.834;4.364;2022-08-04T11:34:34;6.30;;;3.70;;
71878;SDS011;59755;43.834;4.364;2022-08-04T11:44:47;5.70;;;3.25;;
71878;SDS011;59755;43.834;4.364;2022-08-04T11:49:41;7.30;;;3.75;;
71878;SDS011;59755;43.834;4.364;2022-08-04T11:52:08;6.63;;;3.33;;
71878;SDS011;59755;43.834;4.364;2022-08-04T11:54:37;6.13;;;3.47;;
71878;SDS011;59755;43.834;4.364;2022-08-04T11:57:03;7.38;;;3.67;;
71878;SDS011;59755;43.834;4.364;2022-08-04T11:59:30;7.13;;;3.72;;
71878;SDS011;59755;43.834;4.364;2022-08-04T12:04:57;6.15;;;4.15;;
71878;SDS011;59755;43.834;4.364;2022-08-04T12:12:21;6.10;;;3.80;;
71878;SDS011;59755;43.834;4.364;2022-08-04T12:17:31;6.43;;;3.78;;
71878;SDS011;59755;43.834;4.364;2022-08-04T12:20:03;7.32;;;4.30;;
71878;SDS011;59755;43.834;4.364;2022-08-04T12:22:33;6.45;;;4.22;;
71878;SDS011;59755;43.834;4.364;2022-08-04T12:25:02;6.68;;;4.88;;
71878;SDS011;59755;43.834;4.364;2022-08-04T12:27:48;7.13;;;4.82;;
71878;SDS011;59755;43.834;4.364;2022-08-04T12:30:15;7.95;;;5.78;;
71878;SDS011;59755;43.834;4.364;2022-08-04T12:32:54;7.47;;;5.47;;
71878;SDS011;59755;43.834;4.364;2022-08-04T12:35:24;7.15;;;5.05;;
71878;SDS011;59755;43.834;4.364;2022-08-04T12:38:00;7.22;;;5.50;;
71878;SDS011;59755;43.834;4.364;2022-08-04T12:40:30;7.60;;;5.25;;
71878;SDS011;59755;43.834;4.364;2022-08-04T12:45:26;7.22;;;4.95;;
71878;SDS011;59755;43.834;4.364;2022-08-04T12:47:55;9.13;;;5.57;;
71878;SDS011;59755;43.834;4.364;2022-08-04T12:50:22;6.40;;;4.38;;
71878;SDS011;59755;43.834;4.364;2022-08-04T12:52:51;6.90;;;4.88;;
71878;SDS011;59755;43.834;4.364;2022-08-04T12:55:20;5.97;;;4.07;;
71878;SDS011;59755;43.834;4.364;2022-08-04T12:57:47;6.03;;;3.92;;
71878;SDS011;59755;43.834;4.364;2022-08-04T13:00:24;6.65;;;3.95;;
71878;SDS011;59755;43.834;4.364;2022-08-04T13:02:50;7.45;;;4.85;;
71878;SDS011;59755;43.834;4.364;2022-08-04T13:05:17;7.07;;;3.95;;
71878;SDS011;59755;43.834;4.364;2022-08-04T13:07:47;5.72;;;3.15;;
71878;SDS011;59755;43.834;4.364;2022-08-04T13:10:18;7.47;;;3.95;;
71878;SDS011;59755;43.834;4.364;2022-08-04T13:12:55;6.53;;;4.25;;
71878;SDS011;59755;43.834;4.364;2022-08-04T13:15:22;6.32;;;4.55;;
71878;SDS011;59755;43.834;4.364;2022-08-04T13:20:16;7.80;;;5.05;;
71878;SDS011;59755;43.834;4.364;2022-08-04T13:22:42;8.82;;;6.40;;
71878;SDS011;59755;43.834;4.364;2022-08-04T13:25:08;7.90;;;5.82;;
71878;SDS011;59755;43.834;4.364;2022-08-04T13:27:37;8.93;;;5.90;;
71878;SDS011;59755;43.834;4.364;2022-08-04T13:30:04;7.45;;;6.20;;
71878;SDS011;59755;43.834;4.364;2022-08-04T13:32:30;8.68;;;6.30;;
71878;SDS011;59755;43.834;4.364;2022-08-04T13:34:57;8.75;;;7.15;;
71878;SDS011;59755;43.834;4.364;2022-08-04T13:37:29;8.48;;;6.82;;
71878;SDS011;59755;43.834;4.364;2022-08-04T13:39:55;8.32;;;5.82;;
71878;SDS011;59755;43.834;4.364;2022-08-04T13:42:23;7.80;;;5.60;;
71878;SDS011;59755;43.834;4.364;2022-08-04T13:44:51;7.70;;;5.10;;
71878;SDS011;59755;43.834;4.364;2022-08-04T13:47:19;7.15;;;4.43;;
71878;SDS011;59755;43.834;4.364;2022-08-04T13:52:30;6.70;;;4.30;;
71878;SDS011;59755;43.834;4.364;2022-08-04T13:54:58;5.35;;;3.42;;
71878;SDS011;59755;43.834;4.364;2022-08-04T13:57:29;6.38;;;3.33;;
71878;SDS011;59755;43.834;4.364;2022-08-04T13:59:59;8.13;;;3.60;;
71878;SDS011;59755;43.834;4.364;2022-08-04T14:04:53;5.40;;;3.33;;
71878;SDS011;59755;43.834;4.364;2022-08-04T14:07:21;6.88;;;3.00;;
71878;SDS011;59755;43.834;4.364;2022-08-04T14:09:50;5.78;;;2.80;;
71878;SDS011;59755;43.834;4.364;2022-08-04T14:12:16;5.35;;;3.40;;
71878;SDS011;59755;43.834;4.364;2022-08-04T14:14:44;6.03;;;3.15;;
71878;SDS011;59755;43.834;4.364;2022-08-04T14:17:12;6.13;;;2.92;;
71878;SDS011;59755;43.834;4.364;2022-08-04T14:22:44;5.05;;;2.63;;
71878;SDS011;59755;43.834;4.364;2022-08-04T14:35:24;4.70;;;2.30;;
71878;SDS011;59755;43.834;4.364;2022-08-04T14:38:09;4.63;;;2.63;;
71878;SDS011;59755;43.834;4.364;2022-08-04T14:40:37;5.28;;;2.90;;
71878;SDS011;59755;43.834;4.364;2022-08-04T14:43:03;5.82;;;2.90;;
71878;SDS011;59755;43.834;4.364;2022-08-04T14:45:33;5.75;;;3.20;;
71878;SDS011;59755;43.834;4.364;2022-08-04T14:48:00;5.53;;;2.65;;
71878;SDS011;59755;43.834;4.364;2022-08-04T14:50:35;5.40;;;2.80;;
71878;SDS011;59755;43.834;4.364;2022-08-04T14:53:12;5.30;;;2.88;;
71878;SDS011;59755;43.834;4.364;2022-08-04T14:55:41;4.78;;;2.42;;
71878;SDS011;59755;43.834;4.364;2022-08-04T14:58:15;5.07;;;2.38;;
71878;SDS011;59755;43.834;4.364;2022-08-04T15:00:42;4.63;;;2.25;;
71878;SDS011;59755;43.834;4.364;2022-08-04T15:03:09;4.63;;;2.00;;
71878;SDS011;59755;43.834;4.364;2022-08-04T15:05:36;4.70;;;1.90;;
71878;SDS011;59755;43.834;4.364;2022-08-04T15:08:03;5.95;;;2.20;;
71878;SDS011;59755;43.834;4.364;2022-08-04T15:10:30;4.90;;;1.80;;
71878;SDS011;59755;43.834;4.364;2022-08-04T15:12:56;5.03;;;2.25;;
71878;SDS011;59755;43.834;4.364;2022-08-04T15:15:23;4.22;;;1.98;;
71878;SDS011;59755;43.834;4.364;2022-08-04T15:17:52;4.32;;;1.90;;
71878;SDS011;59755;43.834;4.364;2022-08-04T15:20:18;5.00;;;1.98;;
71878;SDS011;59755;43.834;4.364;2022-08-04T15:22:44;4.82;;;2.00;;
71878;SDS011;59755;43.834;4.364;2022-08-04T15:25:11;4.28;;;1.92;;
71878;SDS011;59755;43.834;4.364;2022-08-04T15:27:38;5.07;;;2.00;;
71878;SDS011;59755;43.834;4.364;2022-08-04T15:30:06;4.25;;;1.98;;
71878;SDS011;59755;43.834;4.364;2022-08-04T15:32:36;4.20;;;2.08;;
71878;SDS011;59755;43.834;4.364;2022-08-04T15:37:36;4.47;;;1.95;;
71878;SDS011;59755;43.834;4.364;2022-08-04T15:45:24;5.28;;;2.00;;
71878;SDS011;59755;43.834;4.364;2022-08-04T15:50:25;4.13;;;1.85;;
71878;SDS011;59755;43.834;4.364;2022-08-04T15:57:58;6.63;;;2.22;;
71878;SDS011;59755;43.834;4.364;2022-08-04T16:00:25;4.88;;;2.42;;
71878;SDS011;59755;43.834;4.364;2022-08-04T16:02:51;4.70;;;2.33;;
71878;SDS011;59755;43.834;4.364;2022-08-04T16:07:57;5.50;;;2.40;;
71878;SDS011;59755;43.834;4.364;2022-08-04T16:13:15;5.93;;;2.55;;
71878;SDS011;59755;43.834;4.364;2022-08-04T16:16:01;6.22;;;2.60;;
71878;SDS011;59755;43.834;4.364;2022-08-04T16:20:55;5.85;;;3.13;;
71878;SDS011;59755;43.834;4.364;2022-08-04T16:26:06;5.15;;;2.60;;
71878;SDS011;59755;43.834;4.364;2022-08-04T16:28:37;6.70;;;2.70;;
71878;SDS011;59755;43.834;4.364;2022-08-04T16:31:05;6.10;;;2.92;;
71878;SDS011;59755;43.834;4.364;2022-08-04T16:33:31;4.97;;;2.50;;
71878;SDS011;59755;43.834;4.364;2022-08-04T16:35:58;5.45;;;2.50;;
71878;SDS011;59755;43.834;4.364;2022-08-04T16:38:25;6.93;;;2.70;;
71878;SDS011;59755;43.834;4.364;2022-08-04T16:40:55;6.00;;;3.10;;
71878;SDS011;59755;43.834;4.364;2022-08-04T16:43:22;6.43;;;3.08;;
71878;SDS011;59755;43.834;4.364;2022-08-04T16:45:55;5.43;;;3.10;;
71878;SDS011;59755;43.834;4.364;2022-08-04T16:48:31;5.07;;;2.65;;
71878;SDS011;59755;43.834;4.364;2022-08-04T16:51:08;5.72;;;2.90;;
71878;SDS011;59755;43.834;4.364;2022-08-04T16:53:40;7.88;;;3.20;;
71878;SDS011;59755;43.834;4.364;2022-08-04T16:56:10;6.82;;;3.53;;
71878;SDS011;59755;43.834;4.364;2022-08-04T16:58:38;6.50;;;3.53;;
71878;SDS011;59755;43.834;4.364;2022-08-04T17:01:06;7.65;;;3.60;;
71878;SDS011;59755;43.834;4.364;2022-08-04T17:03:32;6.80;;;3.60;;
71878;SDS011;59755;43.834;4.364;2022-08-04T17:06:05;5.80;;;3.30;;
71878;SDS011;59755;43.834;4.364;2022-08-04T17:08:31;5.75;;;3.40;;
71878;SDS011;59755;43.834;4.364;2022-08-04T17:10:59;6.47;;;3.28;;
71878;SDS011;59755;43.834;4.364;2022-08-04T17:13:32;6.68;;;3.47;;
71878;SDS011;59755;43.834;4.364;2022-08-04T17:16:03;8.05;;;3.63;;
71878;SDS011;59755;43.834;4.364;2022-08-04T17:18:33;7.95;;;3.70;;
71878;SDS011;59755;43.834;4.364;2022-08-04T17:23:36;5.60;;;3.60;;
71878;SDS011;59755;43.834;4.364;2022-08-04T17:26:12;7.30;;;3.85;;
71878;SDS011;59755;43.834;4.364;2022-08-04T17:28:39;6.30;;;3.90;;
71878;SDS011;59755;43.834;4.364;2022-08-04T17:31:08;6.88;;;4.05;;
71878;SDS011;59755;43.834;4.364;2022-08-04T17:33:35;7.68;;;4.25;;
71878;SDS011;59755;43.834;4.364;2022-08-04T17:36:02;6.13;;;4.13;;
71878;SDS011;59755;43.834;4.364;2022-08-04T17:40:59;8.48;;;4.70;;
71878;SDS011;59755;43.834;4.364;2022-08-04T17:48:53;6.82;;;3.95;;
71878;SDS011;59755;43.834;4.364;2022-08-04T17:51:21;7.00;;;4.40;;
71878;SDS011;59755;43.834;4.364;2022-08-04T17:53:54;6.47;;;4.70;;
71878;SDS011;59755;43.834;4.364;2022-08-04T17:56:27;7.68;;;4.40;;
71878;SDS011;59755;43.834;4.364;2022-08-04T17:59:08;7.85;;;4.30;;
71878;SDS011;59755;43.834;4.364;2022-08-04T18:02:01;7.38;;;4.25;;
71878;SDS011;59755;43.834;4.364;2022-08-04T18:06:57;7.13;;;4.57;;
71878;SDS011;59755;43.834;4.364;2022-08-04T18:09:27;6.45;;;4.22;;
71878;SDS011;59755;43.834;4.364;2022-08-04T18:12:04;7.10;;;4.03;;
71878;SDS011;59755;43.834;4.364;2022-08-04T18:17:06;7.03;;;4.70;;
71878;SDS011;59755;43.834;4.364;2022-08-04T18:19:32;7.05;;;4.45;;
71878;SDS011;59755;43.834;4.364;2022-08-04T18:22:00;7.22;;;4.55;;
71878;SDS011;59755;43.834;4.364;2022-08-04T18:24:29;7.20;;;4.72;;
71878;SDS011;59755;43.834;4.364;2022-08-04T18:26:55;6.15;;;4.47;;
71878;SDS011;59755;43.834;4.364;2022-08-04T18:29:21;7.85;;;4.55;;
71878;SDS011;59755;43.834;4.364;2022-08-04T18:31:48;8.35;;;4.72;;
71878;SDS011;59755;43.834;4.364;2022-08-04T18:34:14;6.50;;;4.45;;
71878;SDS011;59755;43.834;4.364;2022-08-04T18:36:40;6.63;;;4.40;;
71878;SDS011;59755;43.834;4.364;2022-08-04T18:39:08;7.82;;;4.63;;
71878;SDS011;59755;43.834;4.364;2022-08-04T18:41:34;7.55;;;4.60;;
71878;SDS011;59755;43.834;4.364;2022-08-04T18:44:01;9.00;;;4.50;;
71878;SDS011;59755;43.834;4.364;2022-08-04T18:46:27;6.40;;;4.82;;
71878;SDS011;59755;43.834;4.364;2022-08-04T18:48:53;6.53;;;4.72;;
71878;SDS011;59755;43.834;4.364;2022-08-04T18:51:20;8.45;;;4.97;;
71878;SDS011;59755;43.834;4.364;2022-08-04T18:53:46;7.93;;;5.03;;
71878;SDS011;59755;43.834;4.364;2022-08-04T18:56:12;7.65;;;4.50;;
71878;SDS011;59755;43.834;4.364;2022-08-04T18:58:39;7.18;;;4.82;;
71878;SDS011;59755;43.834;4.364;2022-08-04T19:01:06;7.97;;;5.05;;
71878;SDS011;59755;43.834;4.364;2022-08-04T19:03:32;7.55;;;4.70;;
71878;SDS011;59755;43.834;4.364;2022-08-04T19:05:59;8.20;;;4.75;;
71878;SDS011;59755;43.834;4.364;2022-08-04T19:08:26;7.18;;;4.38;;
71878;SDS011;59755;43.834;4.364;2022-08-04T19:10:52;8.75;;;4.82;;
71878;SDS011;59755;43.834;4.364;2022-08-04T19:13:18;7.45;;;4.82;;
71878;SDS011;59755;43.834;4.364;2022-08-04T19:15:44;6.50;;;4.82;;
71878;SDS011;59755;43.834;4.364;2022-08-04T19:18:10;7.05;;;4.72;;
71878;SDS011;59755;43.834;4.364;2022-08-04T19:20:36;7.47;;;5.20;;
71878;SDS011;59755;43.834;4.364;2022-08-04T19:23:02;9.32;;;5.53;;
71878;SDS011;59755;43.834;4.364;2022-08-04T19:25:29;10.35;;;5.03;;
71878;SDS011;59755;43.834;4.364;2022-08-04T19:27:55;8.05;;;5.28;;
71878;SDS011;59755;43.834;4.364;2022-08-04T19:30:21;7.53;;;5.03;;
71878;SDS011;59755;43.834;4.364;2022-08-04T19:32:47;9.43;;;4.75;;
71878;SDS011;59755;43.834;4.364;2022-08-04T19:35:13;8.90;;;5.38;;
71878;SDS011;59755;43.834;4.364;2022-08-04T19:37:39;6.88;;;5.10;;
71878;SDS011;59755;43.834;4.364;2022-08-04T19:40:06;6.82;;;4.95;;
71878;SDS011;59755;43.834;4.364;2022-08-04T19:42:32;8.93;;;5.30;;
71878;SDS011;59755;43.834;4.364;2022-08-04T19:44:58;7.97;;;4.90;;
71878;SDS011;59755;43.834;4.364;2022-08-04T19:47:25;7.43;;;5.00;;
71878;SDS011;59755;43.834;4.364;2022-08-04T19:49:51;6.90;;;5.18;;
71878;SDS011;59755;43.834;4.364;2022-08-04T19:52:18;7.78;;;5.47;;